Check out our new PWSWeather beta!
PWSweather.com
Personal Weather Stations
Station Observations
METEOC500
Santo Antonio, FunchalPT 2020

Santo AntonioFunchalPT 2020

Lat: 32.678227, Lon: -16.945054

Elevation: 1669.94751

Station Type: WH Series

High Low Average
Temperature 73.0°F22.8°C 58.8°F14.9°C 65.1°F18.4°C
Dew Point 63.7°F17.6°C 48.9°F9.4°C 58.0°F14.4°C
Winds 8.7 mph 14.0 kmh Calm Calm 3.0 mph WSW4.8 kmh WSW
Wind Gusts 12.5 mph20.1 kmh 2.5 mph4.0 kmh 8.0 mph12.9 kmh
Humidity 91% 65% 78%
Pressure 30.24 in1024.0 mb 30.12 in1020.0 mb -
Precipitation 0.00 in0.0 mm - -
Hour Temp Dew Point Humidity Winds Wind Gusts Pressure Precip Precip Rate Daily Precip Total
12:08 AM 60.4°F15.8°C 53.6°F12.0°C 78% 4.5 mph NNW7.2 kmh NNW 7.6 mph12.2 kmh 30.15 in1021.0 mb 0.00 in0.0 mm 0.00 in0.0 mm 0.00 in0.0 mm
12:23 AM 60.3°F15.7°C 53.8°F12.1°C 79% 4.7 mph NNW7.6 kmh NNW 7.6 mph12.2 kmh 30.14 in1020.7 mb 0.00 in0.0 mm 0.00 in0.0 mm 0.00 in0.0 mm
12:38 AM 60.1°F15.6°C 54.0°F12.2°C 80% 3.4 mph NNW5.5 kmh NNW 7.6 mph12.2 kmh 30.14 in1020.7 mb 0.00 in0.0 mm 0.00 in0.0 mm 0.00 in0.0 mm
12:53 AM 60.3°F15.7°C 52.7°F11.5°C 76% 4.5 mph NW7.2 kmh NW 7.6 mph12.2 kmh 30.14 in1020.7 mb 0.00 in0.0 mm 0.00 in0.0 mm 0.00 in0.0 mm
01:08 AM 60.6°F15.9°C 53.8°F12.1°C 78% 3.1 mph N5.0 kmh N 7.6 mph12.2 kmh 30.14 in1020.7 mb 0.00 in0.0 mm 0.00 in0.0 mm 0.00 in0.0 mm
01:23 AM 60.6°F15.9°C 53.8°F12.1°C 78% 4.0 mph NNW6.4 kmh NNW 7.6 mph12.2 kmh 30.13 in1020.3 mb 0.00 in0.0 mm 0.00 in0.0 mm 0.00 in0.0 mm
01:38 AM 60.6°F15.9°C 55.0°F12.8°C 82% 4.7 mph NNW7.6 kmh NNW 10.1 mph16.3 kmh 30.14 in1020.7 mb 0.00 in0.0 mm 0.00 in0.0 mm 0.00 in0.0 mm
01:53 AM 60.8°F16.0°C 56.3°F13.5°C 85% 3.4 mph NNW5.5 kmh NNW 7.6 mph12.2 kmh 30.13 in1020.3 mb 0.00 in0.0 mm 0.00 in0.0 mm 0.00 in0.0 mm
02:08 AM 60.8°F16.0°C 56.7°F13.7°C 86% 3.1 mph NW5.0 kmh NW 7.6 mph12.2 kmh 30.14 in1020.7 mb 0.00 in0.0 mm 0.00 in0.0 mm 0.00 in0.0 mm
02:23 AM 61.0°F16.1°C 57.4°F14.1°C 88% 2.2 mph NNW3.5 kmh NNW 7.6 mph12.2 kmh 30.14 in1020.7 mb 0.00 in0.0 mm 0.00 in0.0 mm 0.00 in0.0 mm
02:38 AM 61.3°F16.3°C 58.1°F14.5°C 89% 4.5 mph NNW7.2 kmh NNW 4.9 mph7.9 kmh 30.14 in1020.7 mb 0.00 in0.0 mm 0.00 in0.0 mm 0.00 in0.0 mm
02:53 AM 61.3°F16.3°C 58.1°F14.5°C 89% 6.0 mph NNW9.7 kmh NNW 7.6 mph12.2 kmh 30.13 in1020.3 mb 0.00 in0.0 mm 0.00 in0.0 mm 0.00 in0.0 mm
03:08 AM 60.8°F16.0°C 57.2°F14.0°C 88% 4.0 mph NNW6.4 kmh NNW 7.6 mph12.2 kmh 30.12 in1020.0 mb 0.00 in0.0 mm 0.00 in0.0 mm 0.00 in0.0 mm
03:23 AM 60.3°F15.7°C 56.1°F13.4°C 86% 4.0 mph NNW6.4 kmh NNW 10.1 mph16.3 kmh 30.12 in1020.0 mb 0.00 in0.0 mm 0.00 in0.0 mm 0.00 in0.0 mm
03:38 AM 59.5°F15.3°C 48.9°F9.4°C 68% 4.0 mph NNW6.4 kmh NNW 7.6 mph12.2 kmh 30.13 in1020.3 mb 0.00 in0.0 mm 0.00 in0.0 mm 0.00 in0.0 mm
03:53 AM 59.0°F15.0°C 48.9°F9.4°C 69% 5.6 mph N9.0 kmh N 10.1 mph16.3 kmh 30.14 in1020.7 mb 0.00 in0.0 mm 0.00 in0.0 mm 0.00 in0.0 mm
04:08 AM 59.7°F15.4°C 52.9°F11.6°C 78% 5.6 mph N9.0 kmh N 10.1 mph16.3 kmh 30.13 in1020.3 mb 0.00 in0.0 mm 0.00 in0.0 mm 0.00 in0.0 mm
04:23 AM 60.3°F15.7°C 54.1°F12.3°C 80% 4.9 mph NW7.9 kmh NW 10.1 mph16.3 kmh 30.13 in1020.3 mb 0.00 in0.0 mm 0.00 in0.0 mm 0.00 in0.0 mm
04:38 AM 60.1°F15.6°C 52.2°F11.2°C 75% 3.8 mph NW6.1 kmh NW 7.6 mph12.2 kmh 30.14 in1020.7 mb 0.00 in0.0 mm 0.00 in0.0 mm 0.00 in0.0 mm
04:53 AM 59.7°F15.4°C 53.2°F11.8°C 79% 5.6 mph N9.0 kmh N 7.6 mph12.2 kmh 30.14 in1020.7 mb 0.00 in0.0 mm 0.00 in0.0 mm 0.00 in0.0 mm
05:08 AM 59.4°F15.2°C 52.9°F11.6°C 79% 3.1 mph N5.0 kmh N 7.6 mph12.2 kmh 30.14 in1020.7 mb 0.00 in0.0 mm 0.00 in0.0 mm 0.00 in0.0 mm
05:23 AM 58.8°F14.9°C 51.3°F10.7°C 76% 3.8 mph N6.1 kmh N 7.6 mph12.2 kmh 30.14 in1020.7 mb 0.00 in0.0 mm 0.00 in0.0 mm 0.00 in0.0 mm
05:38 AM 59.2°F15.1°C 52.7°F11.5°C 79% 4.5 mph NNW7.2 kmh NNW 7.6 mph12.2 kmh 30.15 in1021.0 mb 0.00 in0.0 mm 0.00 in0.0 mm 0.00 in0.0 mm
05:53 AM 59.5°F15.3°C 52.3°F11.3°C 77% 3.8 mph NNW6.1 kmh NNW 7.6 mph12.2 kmh 30.16 in1021.3 mb 0.00 in0.0 mm 0.00 in0.0 mm 0.00 in0.0 mm
06:08 AM 59.5°F15.3°C 52.3°F11.3°C 77% 3.1 mph NNW5.0 kmh NNW 4.9 mph7.9 kmh 30.16 in1021.3 mb 0.00 in0.0 mm 0.00 in0.0 mm 0.00 in0.0 mm
06:23 AM 59.5°F15.3°C 53.4°F11.9°C 80% 2.9 mph NW4.7 kmh NW 7.6 mph12.2 kmh 30.16 in1021.3 mb 0.00 in0.0 mm 0.00 in0.0 mm 0.00 in0.0 mm
06:38 AM 59.5°F15.3°C 53.4°F11.9°C 80% 3.8 mph NNW6.1 kmh NNW 10.1 mph16.3 kmh 30.17 in1021.7 mb 0.00 in0.0 mm 0.00 in0.0 mm 0.00 in0.0 mm
06:54 AM 59.9°F15.5°C 55.4°F13.0°C 85% 6.3 mph NNW10.1 kmh NNW 7.6 mph12.2 kmh 30.16 in1021.3 mb 0.00 in0.0 mm 0.00 in0.0 mm 0.00 in0.0 mm
07:09 AM 59.9°F15.5°C 55.0°F12.8°C 84% 4.7 mph N7.6 kmh N 10.1 mph16.3 kmh 30.17 in1021.7 mb 0.00 in0.0 mm 0.00 in0.0 mm 0.00 in0.0 mm
07:24 AM 59.4°F15.2°C 51.4°F10.8°C 75% 4.0 mph NNW6.4 kmh NNW 7.6 mph12.2 kmh 30.17 in1021.7 mb 0.00 in0.0 mm 0.00 in0.0 mm 0.00 in0.0 mm
07:39 AM 59.0°F15.0°C 50.0°F10.0°C 72% 4.9 mph NNW7.9 kmh NNW 7.6 mph12.2 kmh 30.17 in1021.7 mb 0.00 in0.0 mm 0.00 in0.0 mm 0.00 in0.0 mm
07:54 AM 59.9°F15.5°C 49.3°F9.6°C 68% 6.0 mph NNW9.7 kmh NNW 7.6 mph12.2 kmh 30.17 in1021.7 mb 0.00 in0.0 mm 0.00 in0.0 mm 0.00 in0.0 mm
08:09 AM 60.8°F16.0°C 48.9°F9.4°C 65% 7.2 mph NNW11.6 kmh NNW 10.1 mph16.3 kmh 30.17 in1021.7 mb 0.00 in0.0 mm 0.00 in0.0 mm 0.00 in0.0 mm
08:24 AM 61.5°F16.4°C 50.5°F10.3°C 67% 4.0 mph NNW6.4 kmh NNW 10.1 mph16.3 kmh 30.18 in1022.0 mb 0.00 in0.0 mm 0.00 in0.0 mm 0.00 in0.0 mm
08:39 AM 62.4°F16.9°C 52.5°F11.4°C 70% 3.4 mph N5.5 kmh N 7.6 mph12.2 kmh 30.18 in1022.0 mb 0.00 in0.0 mm 0.00 in0.0 mm 0.00 in0.0 mm
08:54 AM 63.5°F17.5°C 55.0°F12.8°C 74% 3.4 mph N5.5 kmh N 4.9 mph7.9 kmh 30.19 in1022.4 mb 0.00 in0.0 mm 0.00 in0.0 mm 0.00 in0.0 mm
09:09 AM 64.8°F18.2°C 55.6°F13.1°C 72% 1.3 mph NE2.1 kmh NE 4.9 mph7.9 kmh 30.19 in1022.4 mb 0.00 in0.0 mm 0.00 in0.0 mm 0.00 in0.0 mm
09:24 AM 67.5°F19.7°C 56.5°F13.6°C 68% 0.9 mph E1.4 kmh E 4.9 mph7.9 kmh 30.20 in1022.7 mb 0.00 in0.0 mm 0.00 in0.0 mm 0.00 in0.0 mm
09:39 AM 69.8°F21.0°C 59.2°F15.1°C 69% 5.4 mph ESE8.7 kmh ESE 7.6 mph12.2 kmh 30.20 in1022.7 mb 0.00 in0.0 mm 0.00 in0.0 mm 0.00 in0.0 mm
09:54 AM 70.3°F21.3°C 60.4°F15.8°C 71% 4.0 mph S6.4 kmh S 10.1 mph16.3 kmh 30.20 in1022.7 mb 0.00 in0.0 mm 0.00 in0.0 mm 0.00 in0.0 mm
10:09 AM 70.7°F21.5°C 60.1°F15.6°C 69% 3.4 mph SSE5.5 kmh SSE 10.1 mph16.3 kmh 30.21 in1023.0 mb 0.00 in0.0 mm 0.00 in0.0 mm 0.00 in0.0 mm
10:24 AM 70.5°F21.4°C 61.0°F16.1°C 72% 4.5 mph E7.2 kmh E 10.1 mph16.3 kmh 30.20 in1022.7 mb 0.00 in0.0 mm 0.00 in0.0 mm 0.00 in0.0 mm
10:39 AM 70.0°F21.1°C 60.1°F15.6°C 71% 2.9 mph SE4.7 kmh SE 10.1 mph16.3 kmh 30.21 in1023.0 mb 0.00 in0.0 mm 0.00 in0.0 mm 0.00 in0.0 mm
10:54 AM 69.6°F20.9°C 60.6°F15.9°C 73% 3.4 mph SE5.5 kmh SE 10.1 mph16.3 kmh 30.20 in1022.7 mb 0.00 in0.0 mm 0.00 in0.0 mm 0.00 in0.0 mm
11:09 AM 70.5°F21.4°C 60.6°F15.9°C 71% 4.5 mph SSW7.2 kmh SSW 10.1 mph16.3 kmh 30.20 in1022.7 mb 0.00 in0.0 mm 0.00 in0.0 mm 0.00 in0.0 mm
11:24 AM 71.8°F22.1°C 62.2°F16.8°C 72% Calm Calm 12.5 mph20.1 kmh 30.19 in1022.4 mb 0.00 in0.0 mm 0.00 in0.0 mm 0.00 in0.0 mm
11:39 AM 72.1°F22.3°C 61.9°F16.6°C 70% 1.6 mph SW2.6 kmh SW 10.1 mph16.3 kmh 30.19 in1022.4 mb 0.00 in0.0 mm 0.00 in0.0 mm 0.00 in0.0 mm
11:54 AM 72.1°F22.3°C 63.0°F17.2°C 73% Calm Calm 10.1 mph16.3 kmh 30.20 in1022.7 mb 0.00 in0.0 mm 0.00 in0.0 mm 0.00 in0.0 mm
12:09 PM 72.0°F22.2°C 62.1°F16.7°C 71% 8.7 mph SSE14.0 kmh SSE 12.5 mph20.1 kmh 30.19 in1022.4 mb 0.00 in0.0 mm 0.00 in0.0 mm 0.00 in0.0 mm
12:24 PM 71.8°F22.1°C 61.5°F16.4°C 70% 3.8 mph SSW6.1 kmh SSW 10.1 mph16.3 kmh 30.19 in1022.4 mb 0.00 in0.0 mm 0.00 in0.0 mm 0.00 in0.0 mm
12:39 PM 72.1°F22.3°C 61.9°F16.6°C 70% 5.4 mph SW8.7 kmh SW 12.5 mph20.1 kmh 30.18 in1022.0 mb 0.00 in0.0 mm 0.00 in0.0 mm 0.00 in0.0 mm
12:54 PM 72.0°F22.2°C 63.1°F17.3°C 74% 2.5 mph SW4.0 kmh SW 12.5 mph20.1 kmh 30.18 in1022.0 mb 0.00 in0.0 mm 0.00 in0.0 mm 0.00 in0.0 mm
01:09 PM 71.4°F21.9°C 63.5°F17.5°C 76% 1.8 mph ESE2.9 kmh ESE 12.5 mph20.1 kmh 30.17 in1021.7 mb 0.00 in0.0 mm 0.00 in0.0 mm 0.00 in0.0 mm
01:24 PM 71.2°F21.8°C 62.6°F17.0°C 74% 4.0 mph S6.4 kmh S 12.5 mph20.1 kmh 30.17 in1021.7 mb 0.00 in0.0 mm 0.00 in0.0 mm 0.00 in0.0 mm
01:39 PM 71.8°F22.1°C 62.6°F17.0°C 73% 4.9 mph S7.9 kmh S 10.1 mph16.3 kmh 30.17 in1021.7 mb 0.00 in0.0 mm 0.00 in0.0 mm 0.00 in0.0 mm
01:54 PM 72.0°F22.2°C 62.4°F16.9°C 72% 4.9 mph S7.9 kmh S 12.5 mph20.1 kmh 30.17 in1021.7 mb 0.00 in0.0 mm 0.00 in0.0 mm 0.00 in0.0 mm
02:09 PM 72.0°F22.2°C 62.8°F17.1°C 73% 3.8 mph SE6.1 kmh SE 12.5 mph20.1 kmh 30.17 in1021.7 mb 0.00 in0.0 mm 0.00 in0.0 mm 0.00 in0.0 mm
02:24 PM 71.8°F22.1°C 61.9°F16.6°C 71% 3.4 mph SSE5.5 kmh SSE 7.6 mph12.2 kmh 30.15 in1021.0 mb 0.00 in0.0 mm 0.00 in0.0 mm 0.00 in0.0 mm
02:39 PM 72.5°F22.5°C 61.7°F16.5°C 69% 3.1 mph S5.0 kmh S 10.1 mph16.3 kmh 30.16 in1021.3 mb 0.00 in0.0 mm 0.00 in0.0 mm 0.00 in0.0 mm
02:54 PM 73.0°F22.8°C 63.5°F17.5°C 72% 3.8 mph S6.1 kmh S 10.1 mph16.3 kmh 30.16 in1021.3 mb 0.00 in0.0 mm 0.00 in0.0 mm 0.00 in0.0 mm
03:09 PM 72.9°F22.7°C 63.7°F17.6°C 73% 6.9 mph SSE11.1 kmh SSE 12.5 mph20.1 kmh 30.15 in1021.0 mb 0.00 in0.0 mm 0.00 in0.0 mm 0.00 in0.0 mm
03:24 PM 72.3°F22.4°C 63.1°F17.3°C 73% 3.1 mph SSE5.0 kmh SSE 10.1 mph16.3 kmh 30.15 in1021.0 mb 0.00 in0.0 mm 0.00 in0.0 mm 0.00 in0.0 mm
03:39 PM 72.1°F22.3°C 62.6°F17.0°C 72% 6.3 mph SE10.1 kmh SE 10.1 mph16.3 kmh 30.15 in1021.0 mb 0.00 in0.0 mm 0.00 in0.0 mm 0.00 in0.0 mm
03:54 PM 71.8°F22.1°C 63.5°F17.5°C 75% 1.3 mph SE2.1 kmh SE 12.5 mph20.1 kmh 30.15 in1021.0 mb 0.00 in0.0 mm 0.00 in0.0 mm 0.00 in0.0 mm
04:09 PM 71.1°F21.7°C 63.1°F17.3°C 76% 3.8 mph E6.1 kmh E 10.1 mph16.3 kmh 30.15 in1021.0 mb 0.00 in0.0 mm 0.00 in0.0 mm 0.00 in0.0 mm
04:24 PM 70.7°F21.5°C 63.1°F17.3°C 77% 0.7 mph SE1.1 kmh SE 10.1 mph16.3 kmh 30.15 in1021.0 mb 0.00 in0.0 mm 0.00 in0.0 mm 0.00 in0.0 mm
04:39 PM 70.7°F21.5°C 62.8°F17.1°C 76% 4.5 mph S7.2 kmh S 10.1 mph16.3 kmh 30.15 in1021.0 mb 0.00 in0.0 mm 0.00 in0.0 mm 0.00 in0.0 mm
04:54 PM 70.2°F21.2°C 63.7°F17.6°C 80% 3.8 mph SE6.1 kmh SE 10.1 mph16.3 kmh 30.16 in1021.3 mb 0.00 in0.0 mm 0.00 in0.0 mm 0.00 in0.0 mm
05:09 PM 68.9°F20.5°C 62.8°F17.1°C 81% 1.8 mph SSE2.9 kmh SSE 7.6 mph12.2 kmh 30.16 in1021.3 mb 0.00 in0.0 mm 0.00 in0.0 mm 0.00 in0.0 mm
05:24 PM 68.0°F20.0°C 62.6°F17.0°C 83% 3.8 mph S6.1 kmh S 7.6 mph12.2 kmh 30.17 in1021.7 mb 0.00 in0.0 mm 0.00 in0.0 mm 0.00 in0.0 mm
05:39 PM 67.3°F19.6°C 62.6°F17.0°C 85% 5.4 mph ESE8.7 kmh ESE 7.6 mph12.2 kmh 30.17 in1021.7 mb 0.00 in0.0 mm 0.00 in0.0 mm 0.00 in0.0 mm
05:54 PM 66.6°F19.2°C 62.6°F17.0°C 87% 2.2 mph SE3.5 kmh SE 7.6 mph12.2 kmh 30.16 in1021.3 mb 0.00 in0.0 mm 0.00 in0.0 mm 0.00 in0.0 mm
06:09 PM 66.2°F19.0°C 62.2°F16.8°C 87% Calm Calm 4.9 mph7.9 kmh 30.16 in1021.3 mb 0.00 in0.0 mm 0.00 in0.0 mm 0.00 in0.0 mm
06:24 PM 66.4°F19.1°C 62.4°F16.9°C 87% Calm Calm 2.5 mph4.0 kmh 30.17 in1021.7 mb 0.00 in0.0 mm 0.00 in0.0 mm 0.00 in0.0 mm
06:39 PM 66.2°F19.0°C 62.2°F16.8°C 87% Calm Calm 2.5 mph4.0 kmh 30.17 in1021.7 mb 0.00 in0.0 mm 0.00 in0.0 mm 0.00 in0.0 mm
06:54 PM 66.0°F18.9°C 62.4°F16.9°C 88% Calm Calm 2.5 mph4.0 kmh 30.17 in1021.7 mb 0.00 in0.0 mm 0.00 in0.0 mm 0.00 in0.0 mm
07:09 PM 65.7°F18.7°C 62.2°F16.8°C 89% Calm Calm 2.5 mph4.0 kmh 30.17 in1021.7 mb 0.00 in0.0 mm 0.00 in0.0 mm 0.00 in0.0 mm
07:24 PM 65.1°F18.4°C 61.9°F16.6°C 89% Calm Calm 2.5 mph4.0 kmh 30.18 in1022.0 mb 0.00 in0.0 mm 0.00 in0.0 mm 0.00 in0.0 mm
07:39 PM 64.2°F17.9°C 60.6°F15.9°C 88% Calm Calm 2.5 mph4.0 kmh 30.18 in1022.0 mb 0.00 in0.0 mm 0.00 in0.0 mm 0.00 in0.0 mm
07:54 PM 63.9°F17.7°C 60.6°F15.9°C 89% Calm Calm 2.5 mph4.0 kmh 30.18 in1022.0 mb 0.00 in0.0 mm 0.00 in0.0 mm 0.00 in0.0 mm
08:09 PM 63.7°F17.6°C 60.4°F15.8°C 89% Calm Calm 2.5 mph4.0 kmh 30.19 in1022.4 mb 0.00 in0.0 mm 0.00 in0.0 mm 0.00 in0.0 mm
08:24 PM 63.7°F17.6°C 60.6°F15.9°C 90% Calm Calm 4.9 mph7.9 kmh 30.19 in1022.4 mb 0.00 in0.0 mm 0.00 in0.0 mm 0.00 in0.0 mm
08:39 PM 63.7°F17.6°C 60.6°F15.9°C 90% 0.2 mph NW0.3 kmh NW 4.9 mph7.9 kmh 30.20 in1022.7 mb 0.00 in0.0 mm 0.00 in0.0 mm 0.00 in0.0 mm
08:55 PM 63.3°F17.4°C 60.3°F15.7°C 90% 0.9 mph NNW1.4 kmh NNW 2.5 mph4.0 kmh 30.20 in1022.7 mb 0.00 in0.0 mm 0.00 in0.0 mm 0.00 in0.0 mm
09:10 PM 63.0°F17.2°C 59.7°F15.4°C 89% 2.2 mph NNW3.5 kmh NNW 4.9 mph7.9 kmh 30.20 in1022.7 mb 0.00 in0.0 mm 0.00 in0.0 mm 0.00 in0.0 mm
09:25 PM 62.4°F16.9°C 58.5°F14.7°C 87% 2.2 mph NNW3.5 kmh NNW 4.9 mph7.9 kmh 30.21 in1023.0 mb 0.00 in0.0 mm 0.00 in0.0 mm 0.00 in0.0 mm
09:40 PM 62.4°F16.9°C 58.8°F14.9°C 88% 1.3 mph NW2.1 kmh NW 7.6 mph12.2 kmh 30.22 in1023.4 mb 0.00 in0.0 mm 0.00 in0.0 mm 0.00 in0.0 mm
09:55 PM 63.0°F17.2°C 59.9°F15.5°C 90% 2.2 mph NW3.5 kmh NW 4.9 mph7.9 kmh 30.23 in1023.7 mb 0.00 in0.0 mm 0.00 in0.0 mm 0.00 in0.0 mm
10:10 PM 63.3°F17.4°C 60.3°F15.7°C 90% Calm Calm 4.9 mph7.9 kmh 30.24 in1024.0 mb 0.00 in0.0 mm 0.00 in0.0 mm 0.00 in0.0 mm
10:25 PM 63.1°F17.3°C 60.4°F15.8°C 91% 2.5 mph NNW4.0 kmh NNW 2.5 mph4.0 kmh 30.23 in1023.7 mb 0.00 in0.0 mm 0.00 in0.0 mm 0.00 in0.0 mm
10:40 PM 62.2°F16.8°C 58.3°F14.6°C 87% 2.5 mph NNW4.0 kmh NNW 4.9 mph7.9 kmh 30.23 in1023.7 mb 0.00 in0.0 mm 0.00 in0.0 mm 0.00 in0.0 mm
10:55 PM 61.7°F16.5°C 55.8°F13.2°C 81% Calm Calm 4.9 mph7.9 kmh 30.24 in1024.0 mb 0.00 in0.0 mm 0.00 in0.0 mm 0.00 in0.0 mm
11:10 PM 62.2°F16.8°C 53.8°F12.1°C 74% Calm Calm 4.9 mph7.9 kmh 30.23 in1023.7 mb 0.00 in0.0 mm 0.00 in0.0 mm 0.00 in0.0 mm
11:25 PM 62.8°F17.1°C 52.5°F11.4°C 69% 0.9 mph NW1.4 kmh NW 4.9 mph7.9 kmh 30.22 in1023.4 mb 0.00 in0.0 mm 0.00 in0.0 mm 0.00 in0.0 mm
11:40 PM 63.5°F17.5°C 54.0°F12.2°C 71% 0.7 mph N1.1 kmh N 4.9 mph7.9 kmh 30.23 in1023.7 mb 0.00 in0.0 mm 0.00 in0.0 mm 0.00 in0.0 mm
11:55 PM 63.9°F17.7°C 52.3°F11.3°C 66% Calm Calm 4.9 mph7.9 kmh 30.22 in1023.4 mb 0.00 in0.0 mm 0.00 in0.0 mm 0.00 in0.0 mm